Time;durP1;ratioP1;P1;durP2;ratioP2;P2;SDS_P1;SDS_P2;PMS_P1;PMS_P2;Temp;Humidity;BMP_temperature;BMP_pressure;BME280_temperature;BME280_humidity;BME280_pressure;Samples;Min_cycle;Max_cycle;Signal;HPM_P1;HPM_P2
2021/08/14 00:01:53;;;;;;;61.05;9.32;;;;;;;;;;5024495;28;20133;-64
2021/08/14 00:04:20;;;;;;;59.00;9.23;;;;;;;;;;5024782;28;20053;-63
2021/08/14 00:06:47;;;;;;;39.72;8.73;;;;;;;;;;5025912;28;20077;-63
2021/08/14 00:09:13;;;;;;;42.20;8.63;;;;;;;;;;5022403;28;20045;-63
2021/08/14 00:11:40;;;;;;;38.88;8.50;;;;;;;;;;5019217;28;20412;-63
2021/08/14 00:14:06;;;;;;;36.10;8.38;;;;;;;;;;5023189;28;20136;-63
2021/08/14 00:16:33;;;;;;;44.40;9.05;;;;;;;;;;5024107;28;20088;-63
2021/08/14 00:18:59;;;;;;;43.20;8.68;;;;;;;;;;5016671;28;20487;-63
2021/08/14 00:21:26;;;;;;;37.33;7.43;;;;;;;;;;5015044;28;20132;-64
2021/08/14 00:23:53;;;;;;;36.67;7.93;;;;;;;;;;5021273;28;20045;-63
2021/08/14 00:26:19;;;;;;;35.08;7.38;;;;;;;;;;5026922;28;20148;-64
2021/08/14 00:28:46;;;;;;;34.65;7.22;;;;;;;;;;5021510;28;20049;-64
2021/08/14 00:31:13;;;;;;;35.15;7.60;;;;;;;;;;5022990;28;20132;-64
2021/08/14 00:33:39;;;;;;;33.78;7.40;;;;;;;;;;5017331;28;20501;-65
2021/08/14 00:36:07;;;;;;;38.50;6.93;;;;;;;;;;5020930;28;20567;-63
2021/08/14 00:38:33;;;;;;;25.08;6.68;;;;;;;;;;5025973;28;20145;-64
2021/08/14 00:41:00;;;;;;;33.97;7.28;;;;;;;;;;5020324;28;20141;-64
2021/08/14 00:43:27;;;;;;;38.78;8.00;;;;;;;;;;5019417;28;20049;-63
2021/08/14 00:45:53;;;;;;;33.55;7.00;;;;;;;;;;5022959;28;20542;-63
2021/08/14 00:48:33;;;;;;;32.55;7.07;;;;;;;;;;5021108;28;20402;-63
2021/08/14 00:51:00;;;;;;;32.95;7.22;;;;;;;;;;5018564;28;20466;-63
2021/08/14 00:53:26;;;;;;;28.55;6.63;;;;;;;;;;5021510;28;20132;-63
2021/08/14 00:55:54;;;;;;;21.38;6.53;;;;;;;;;;5018179;28;20081;-63
2021/08/14 00:58:21;;;;;;;36.22;7.80;;;;;;;;;;5024071;28;20956;-63
2021/08/14 01:00:47;;;;;;;34.07;6.97;;;;;;;;;;5023551;28;20073;-63
2021/08/14 01:03:14;;;;;;;34.90;6.85;;;;;;;;;;5019900;28;20046;-63
2021/08/14 01:05:45;;;;;;;37.95;6.85;;;;;;;;;;5024504;28;20045;-63
2021/08/14 01:08:13;;;;;;;27.38;6.15;;;;;;;;;;5022756;28;20073;-63
2021/08/14 01:10:40;;;;;;;30.73;6.70;;;;;;;;;;5021484;28;20091;-63
2021/08/14 01:13:07;;;;;;;30.52;6.05;;;;;;;;;;5023062;28;20136;-63
2021/08/14 01:15:33;;;;;;;29.67;6.40;;;;;;;;;;5018777;28;20052;-64
2021/08/14 01:18:01;;;;;;;26.80;6.53;;;;;;;;;;5023966;28;20052;-63
2021/08/14 01:20:28;;;;;;;27.52;6.72;;;;;;;;;;5017470;28;20490;-63
2021/08/14 01:22:54;;;;;;;29.80;6.45;;;;;;;;;;5019416;28;20080;-63
2021/08/14 01:25:20;;;;;;;33.67;6.50;;;;;;;;;;5022032;28;20050;-64
2021/08/14 01:27:48;;;;;;;28.38;5.90;;;;;;;;;;5007346;28;20156;-63
2021/08/14 01:30:14;;;;;;;32.67;5.47;;;;;;;;;;5020217;28;20104;-63
2021/08/14 01:32:41;;;;;;;29.23;5.95;;;;;;;;;;5020918;28;20128;-64
2021/08/14 01:35:08;;;;;;;23.70;4.90;;;;;;;;;;5019849;28;20128;-64
2021/08/14 01:37:34;;;;;;;19.60;5.47;;;;;;;;;;5019982;28;20077;-64
2021/08/14 01:40:01;;;;;;;31.25;6.63;;;;;;;;;;5019289;28;20133;-63
2021/08/14 01:42:27;;;;;;;27.37;6.07;;;;;;;;;;5020816;28;20124;-63
2021/08/14 01:44:54;;;;;;;33.90;5.43;;;;;;;;;;5014394;28;21016;-64
2021/08/14 01:47:20;;;;;;;32.72;6.95;;;;;;;;;;5021818;28;20185;-63
2021/08/14 01:49:48;;;;;;;29.63;6.20;;;;;;;;;;5021681;28;20121;-63
2021/08/14 01:52:15;;;;;;;33.47;6.50;;;;;;;;;;5021934;28;20548;-63
2021/08/14 01:54:42;;;;;;;23.05;5.45;;;;;;;;;;5020013;28;20590;-63
2021/08/14 01:57:09;;;;;;;25.10;5.97;;;;;;;;;;5021762;28;20129;-63
2021/08/14 01:59:36;;;;;;;27.20;6.43;;;;;;;;;;5017379;28;20046;-64
2021/08/14 02:02:02;;;;;;;26.60;6.30;;;;;;;;;;5023213;28;20625;-63
2021/08/14 02:04:29;;;;;;;21.55;5.63;;;;;;;;;;5023755;28;20044;-63
2021/08/14 02:06:56;;;;;;;28.92;6.40;;;;;;;;;;5024098;28;20077;-63
2021/08/14 02:09:22;;;;;;;30.63;6.20;;;;;;;;;;5018636;28;20108;-64
2021/08/14 02:11:49;;;;;;;32.33;6.27;;;;;;;;;;5016321;28;20048;-63
2021/08/14 02:14:16;;;;;;;33.88;6.90;;;;;;;;;;5022911;28;20332;-63
2021/08/14 02:16:42;;;;;;;42.60;6.73;;;;;;;;;;5023365;28;20049;-63
2021/08/14 02:19:09;;;;;;;30.03;5.70;;;;;;;;;;5026868;28;20716;-63
2021/08/14 02:21:35;;;;;;;40.15;7.22;;;;;;;;;;5022811;28;20336;-63
2021/08/14 02:24:02;;;;;;;29.85;6.60;;;;;;;;;;5025037;28;20136;-63
2021/08/14 02:26:29;;;;;;;30.05;7.53;;;;;;;;;;5021481;28;20049;-63
2021/08/14 02:28:55;;;;;;;37.30;6.90;;;;;;;;;;5023976;28;20128;-63
2021/08/14 02:31:22;;;;;;;36.70;6.95;;;;;;;;;;5020988;28;20056;-63
2021/08/14 02:33:49;;;;;;;40.53;7.82;;;;;;;;;;5022200;28;20045;-63
2021/08/14 02:36:15;;;;;;;31.80;7.07;;;;;;;;;;5027560;28;20949;-63
2021/08/14 02:38:42;;;;;;;26.83;5.70;;;;;;;;;;5027386;28;20049;-63
2021/08/14 02:41:09;;;;;;;20.58;6.43;;;;;;;;;;5026224;28;20565;-63
2021/08/14 02:43:35;;;;;;;41.95;7.35;;;;;;;;;;5035803;28;20124;-63
2021/08/14 02:46:03;;;;;;;36.30;6.78;;;;;;;;;;5023048;28;20078;-63
2021/08/14 02:48:30;;;;;;;32.72;7.18;;;;;;;;;;5023754;28;20132;-63
2021/08/14 02:50:56;;;;;;;36.40;7.93;;;;;;;;;;5028973;28;20116;-63
2021/08/14 02:53:23;;;;;;;33.85;7.88;;;;;;;;;;5026022;28;20081;-63
2021/08/14 02:55:49;;;;;;;27.85;7.15;;;;;;;;;;5026676;28;20125;-63
2021/08/14 02:58:16;;;;;;;39.78;7.63;;;;;;;;;;5024307;28;20144;-64
2021/08/14 03:00:42;;;;;;;34.25;7.28;;;;;;;;;;5025255;28;20145;-64
2021/08/14 03:03:09;;;;;;;37.30;8.23;;;;;;;;;;5020976;28;20049;-63
2021/08/14 03:05:36;;;;;;;34.43;7.00;;;;;;;;;;5026437;28;20081;-63
2021/08/14 03:08:06;;;;;;;41.00;6.93;;;;;;;;;;5026014;28;21068;-63
2021/08/14 03:10:33;;;;;;;41.40;8.00;;;;;;;;;;5022089;28;20096;-63
2021/08/14 03:12:59;;;;;;;32.28;7.82;;;;;;;;;;5021774;28;20132;-63
2021/08/14 03:15:26;;;;;;;42.28;8.95;;;;;;;;;;5029379;28;20532;-64
2021/08/14 03:17:54;;;;;;;35.92;8.02;;;;;;;;;;5022178;28;20136;-63
2021/08/14 03:20:20;;;;;;;36.33;8.73;;;;;;;;;;5022907;28;20096;-63
2021/08/14 03:22:46;;;;;;;31.38;7.18;;;;;;;;;;5020671;28;20136;-63
2021/08/14 03:25:15;;;;;;;40.70;8.10;;;;;;;;;;5020696;28;20077;-63
2021/08/14 03:27:41;;;;;;;38.88;8.02;;;;;;;;;;5024327;28;20512;-63
2021/08/14 03:30:08;;;;;;;33.00;7.97;;;;;;;;;;5022594;28;20077;-63
2021/08/14 03:32:35;;;;;;;37.67;7.40;;;;;;;;;;5024013;28;20125;-63
2021/08/14 03:35:02;;;;;;;31.15;7.22;;;;;;;;;;5021223;28;20870;-63
2021/08/14 03:37:28;;;;;;;41.13;7.85;;;;;;;;;;5022744;28;20088;-63
2021/08/14 03:39:55;;;;;;;37.17;7.88;;;;;;;;;;5023052;28;20125;-63
2021/08/14 03:42:21;;;;;;;34.88;7.32;;;;;;;;;;5022467;28;20140;-63
2021/08/14 03:44:47;;;;;;;36.63;7.57;;;;;;;;;;5022496;28;20145;-63
2021/08/14 03:47:14;;;;;;;39.35;7.75;;;;;;;;;;5022545;28;20173;-64
2021/08/14 03:49:40;;;;;;;41.00;8.50;;;;;;;;;;5021894;28;21732;-64
2021/08/14 03:52:07;;;;;;;34.70;7.80;;;;;;;;;;5022646;28;20120;-64
2021/08/14 03:54:34;;;;;;;30.40;5.82;;;;;;;;;;5023595;28;20077;-64
2021/08/14 03:57:00;;;;;;;40.88;7.63;;;;;;;;;;5025897;28;20140;-64
2021/08/14 03:59:27;;;;;;;33.05;7.22;;;;;;;;;;5021924;28;20168;-64
2021/08/14 04:01:53;;;;;;;32.72;7.30;;;;;;;;;;5025571;28;20462;-63
2021/08/14 04:04:20;;;;;;;25.70;6.72;;;;;;;;;;5021973;28;20064;-64
2021/08/14 04:06:46;;;;;;;38.08;6.93;;;;;;;;;;5023921;28;20046;-64
2021/08/14 04:09:13;;;;;;;35.70;7.15;;;;;;;;;;5023733;28;20137;-64
2021/08/14 04:11:43;;;;;;;38.38;8.05;;;;;;;;;;5019240;28;20451;-64
2021/08/14 04:14:09;;;;;;;32.28;6.85;;;;;;;;;;5019426;28;21044;-64
2021/08/14 04:16:37;;;;;;;27.73;6.68;;;;;;;;;;5018244;28;20080;-64
2021/08/14 04:19:03;;;;;;;31.20;6.83;;;;;;;;;;5016905;28;20069;-64
2021/08/14 04:21:29;;;;;;;27.33;6.20;;;;;;;;;;5021759;28;20462;-64
2021/08/14 04:23:56;;;;;;;31.03;6.97;;;;;;;;;;5026465;28;20580;-64
2021/08/14 04:26:23;;;;;;;33.85;6.68;;;;;;;;;;5021111;28;20104;-64
2021/08/14 04:28:49;;;;;;;31.02;6.88;;;;;;;;;;5026893;28;20557;-64
2021/08/14 04:31:16;;;;;;;33.38;6.38;;;;;;;;;;5022189;28;20139;-64
2021/08/14 04:33:42;;;;;;;30.65;6.75;;;;;;;;;;5018606;28;20045;-64
2021/08/14 04:36:09;;;;;;;35.47;7.00;;;;;;;;;;5024263;28;20077;-64
2021/08/14 04:38:36;;;;;;;34.58;6.78;;;;;;;;;;5021614;28;20124;-64
2021/08/14 04:41:02;;;;;;;38.70;6.97;;;;;;;;;;5019232;28;20128;-64
2021/08/14 04:43:29;;;;;;;32.85;6.60;;;;;;;;;;5022762;28;20085;-64
2021/08/14 04:45:56;;;;;;;29.83;6.60;;;;;;;;;;5019983;28;20093;-63
2021/08/14 04:48:23;;;;;;;36.42;7.30;;;;;;;;;;5025101;28;20064;-63
2021/08/14 04:50:49;;;;;;;33.55;6.20;;;;;;;;;;5027984;28;20077;-64
2021/08/14 04:53:16;;;;;;;28.73;6.30;;;;;;;;;;5019927;28;20489;-64
2021/08/14 04:55:43;;;;;;;34.13;7.45;;;;;;;;;;5017197;28;20136;-64
2021/08/14 04:58:11;;;;;;;35.00;6.38;;;;;;;;;;5021229;28;20057;-64
2021/08/14 05:00:38;;;;;;;35.47;6.28;;;;;;;;;;5017816;28;20504;-64
2021/08/14 05:03:05;;;;;;;28.80;5.97;;;;;;;;;;5019780;28;20060;-64
2021/08/14 05:05:31;;;;;;;33.47;7.05;;;;;;;;;;5022558;28;20406;-64
2021/08/14 05:07:58;;;;;;;34.85;7.75;;;;;;;;;;5018844;28;20080;-64
2021/08/14 05:10:24;;;;;;;27.85;5.68;;;;;;;;;;5015434;28;20217;-64
2021/08/14 05:12:51;;;;;;;29.83;6.03;;;;;;;;;;5021729;28;20052;-64
2021/08/14 05:15:19;;;;;;;38.63;6.47;;;;;;;;;;5019184;28;20064;-64
2021/08/14 05:17:45;;;;;;;27.92;6.05;;;;;;;;;;5019753;28;20054;-63
2021/08/14 05:20:11;;;;;;;31.20;6.28;;;;;;;;;;5024896;28;20133;-63
2021/08/14 05:22:39;;;;;;;26.67;5.82;;;;;;;;;;5021168;28;20072;-63
2021/08/14 05:25:05;;;;;;;37.05;6.15;;;;;;;;;;5022673;28;20060;-63
2021/08/14 05:27:32;;;;;;;33.30;6.65;;;;;;;;;;5019463;28;20085;-64
2021/08/14 05:29:59;;;;;;;29.27;5.65;;;;;;;;;;5020140;28;20133;-64
2021/08/14 05:32:25;;;;;;;26.65;5.55;;;;;;;;;;5022293;28;20153;-64
2021/08/14 05:34:52;;;;;;;30.38;6.30;;;;;;;;;;5022982;28;20442;-63
2021/08/14 05:37:19;;;;;;;37.97;6.43;;;;;;;;;;5020329;28;20085;-64
2021/08/14 05:39:45;;;;;;;31.60;5.68;;;;;;;;;;5017065;28;20057;-64
2021/08/14 05:42:11;;;;;;;31.40;5.38;;;;;;;;;;5014452;28;20132;-64
2021/08/14 05:44:39;;;;;;;28.40;5.03;;;;;;;;;;5021783;28;20141;-64
2021/08/14 05:47:05;;;;;;;25.70;4.80;;;;;;;;;;5017911;28;20132;-63
2021/08/14 05:49:32;;;;;;;32.35;5.78;;;;;;;;;;5020665;28;20120;-64
2021/08/14 05:51:59;;;;;;;30.97;5.43;;;;;;;;;;5024943;28;20056;-64
2021/08/14 05:54:26;;;;;;;36.05;5.47;;;;;;;;;;5023622;28;20556;-64
2021/08/14 05:56:52;;;;;;;27.98;5.20;;;;;;;;;;5026688;28;20134;-64
2021/08/14 05:59:19;;;;;;;26.80;5.22;;;;;;;;;;5023733;28;20054;-64
2021/08/14 06:01:45;;;;;;;29.65;4.75;;;;;;;;;;5019884;28;20187;-63
2021/08/14 06:04:12;;;;;;;30.23;5.47;;;;;;;;;;5025940;28;20068;-63
2021/08/14 06:06:42;;;;;;;32.75;4.80;;;;;;;;;;5025757;28;20051;-63
2021/08/14 06:09:09;;;;;;;27.48;5.35;;;;;;;;;;5022841;28;20140;-64
2021/08/14 06:11:35;;;;;;;33.05;4.80;;;;;;;;;;5021370;28;20131;-64
2021/08/14 06:14:02;;;;;;;25.52;4.45;;;;;;;;;;5020859;28;20070;-64
2021/08/14 06:16:29;;;;;;;21.88;5.10;;;;;;;;;;5022761;28;20102;-63
2021/08/14 06:18:55;;;;;;;23.00;4.78;;;;;;;;;;5025836;28;20065;-64
2021/08/14 06:21:22;;;;;;;25.07;4.70;;;;;;;;;;5024217;28;20076;-63
2021/08/14 06:23:48;;;;;;;23.13;4.60;;;;;;;;;;5027090;28;20647;-63
2021/08/14 06:26:15;;;;;;;20.63;3.97;;;;;;;;;;5022924;28;20136;-63
2021/08/14 06:28:42;;;;;;;21.08;4.50;;;;;;;;;;5021376;28;20639;-63
2021/08/14 06:31:08;;;;;;;22.90;4.03;;;;;;;;;;5027567;28;20042;-63
2021/08/14 06:33:35;;;;;;;15.68;3.80;;;;;;;;;;5024209;28;20073;-63
2021/08/14 06:36:01;;;;;;;20.98;4.30;;;;;;;;;;5023636;28;20037;-63
2021/08/14 06:38:28;;;;;;;20.08;4.10;;;;;;;;;;5025855;28;20128;-63
2021/08/14 06:40:54;;;;;;;24.38;4.35;;;;;;;;;;5021928;28;20080;-63
2021/08/14 06:43:21;;;;;;;22.00;4.27;;;;;;;;;;5027516;28;20461;-63
2021/08/14 06:45:47;;;;;;;24.60;4.33;;;;;;;;;;5019102;28;20129;-63
2021/08/14 06:48:14;;;;;;;23.05;4.00;;;;;;;;;;5025307;28;20615;-63
2021/08/14 06:50:41;;;;;;;31.00;4.57;;;;;;;;;;5022729;28;20144;-62
2021/08/14 06:53:07;;;;;;;22.88;4.20;;;;;;;;;;5023432;28;20081;-62
2021/08/14 06:55:34;;;;;;;23.08;4.15;;;;;;;;;;5024908;28;20297;-63
2021/08/14 06:58:00;;;;;;;18.58;4.75;;;;;;;;;;5025970;28;20041;-63
2021/08/14 07:00:27;;;;;;;15.63;3.60;;;;;;;;;;5026656;28;20080;-62
2021/08/14 07:02:53;;;;;;;16.40;3.80;;;;;;;;;;5030463;28;20037;-62
2021/08/14 07:05:23;;;;;;;19.63;3.92;;;;;;;;;;5031165;28;20128;-62
2021/08/14 07:07:50;;;;;;;18.80;4.15;;;;;;;;;;5029020;28;20080;-62
2021/08/14 07:10:16;;;;;;;16.13;3.53;;;;;;;;;;5028567;28;20084;-62
2021/08/14 07:12:44;;;;;;;16.45;3.20;;;;;;;;;;5027020;28;20056;-62
2021/08/14 07:15:11;;;;;;;22.83;4.70;;;;;;;;;;5023697;28;20181;-62
2021/08/14 07:17:41;;;;;;;20.70;3.80;;;;;;;;;;5021091;28;20057;-62
2021/08/14 07:20:08;;;;;;;16.83;2.95;;;;;;;;;;5026362;28;20085;-62
2021/08/14 07:22:35;;;;;;;14.43;3.13;;;;;;;;;;5021927;28;20134;-63
2021/08/14 07:25:01;;;;;;;15.02;3.20;;;;;;;;;;5023636;28;20059;-62
2021/08/14 07:27:28;;;;;;;18.60;3.30;;;;;;;;;;5024568;28;20126;-62
2021/08/14 07:29:54;;;;;;;16.65;3.28;;;;;;;;;;5021582;28;20331;-62
2021/08/14 07:32:21;;;;;;;12.15;2.92;;;;;;;;;;5021628;28;20076;-62
2021/08/14 07:34:47;;;;;;;16.42;3.08;;;;;;;;;;5021533;28;20121;-62
2021/08/14 07:37:14;;;;;;;16.30;2.75;;;;;;;;;;5025092;28;20106;-62
2021/08/14 07:39:40;;;;;;;15.30;3.20;;;;;;;;;;5022172;28;20132;-62
2021/08/14 07:42:07;;;;;;;12.75;2.92;;;;;;;;;;5023175;28;20128;-61
2021/08/14 07:44:34;;;;;;;13.25;3.35;;;;;;;;;;5022146;28;20144;-62
2021/08/14 07:47:13;;;;;;;13.30;2.90;;;;;;;;;;5022000;28;20115;-61
2021/08/14 07:49:40;;;;;;;12.32;2.83;;;;;;;;;;5025208;28;20138;-62
2021/08/14 07:52:08;;;;;;;15.27;3.45;;;;;;;;;;5019461;28;20081;-62
2021/08/14 07:54:35;;;;;;;10.32;2.67;;;;;;;;;;5022298;28;20049;-62
2021/08/14 07:57:01;;;;;;;21.95;3.75;;;;;;;;;;5018205;28;20414;-62
2021/08/14 07:59:28;;;;;;;14.25;3.40;;;;;;;;;;5027157;28;20132;-62
2021/08/14 08:01:54;;;;;;;11.50;2.88;;;;;;;;;;5017655;28;20107;-62
2021/08/14 08:04:21;;;;;;;13.05;3.38;;;;;;;;;;5025779;28;20130;-61
2021/08/14 08:06:48;;;;;;;8.77;2.63;;;;;;;;;;5026097;28;20124;-62
2021/08/14 08:09:15;;;;;;;13.45;3.20;;;;;;;;;;5021431;28;20137;-62
2021/08/14 08:11:42;;;;;;;13.43;3.40;;;;;;;;;;5016642;28;20873;-62
2021/08/14 08:14:08;;;;;;;15.80;3.00;;;;;;;;;;5020696;28;20085;-62
2021/08/14 08:16:34;;;;;;;14.40;3.63;;;;;;;;;;5020077;28;20096;-62
2021/08/14 08:19:02;;;;;;;15.23;3.88;;;;;;;;;;5016642;28;20041;-62
2021/08/14 08:21:28;;;;;;;20.15;3.92;;;;;;;;;;5020300;28;20049;-62
2021/08/14 08:23:55;;;;;;;18.88;4.22;;;;;;;;;;5023010;28;20510;-62
2021/08/14 08:26:21;;;;;;;21.23;5.32;;;;;;;;;;5024142;28;20137;-62
2021/08/14 08:28:48;;;;;;;17.90;4.00;;;;;;;;;;5030940;28;20058;-62
2021/08/14 08:31:14;;;;;;;19.20;4.25;;;;;;;;;;5019817;28;20056;-62
2021/08/14 08:33:41;;;;;;;16.20;3.95;;;;;;;;;;5027030;28;20115;-62
2021/08/14 08:36:07;;;;;;;19.20;4.00;;;;;;;;;;5026676;28;20087;-62
2021/08/14 08:38:34;;;;;;;22.27;4.43;;;;;;;;;;5025404;28;20053;-62
2021/08/14 08:41:01;;;;;;;18.88;4.00;;;;;;;;;;5021053;28;20044;-62
2021/08/14 08:43:27;;;;;;;19.50;4.25;;;;;;;;;;5024548;28;20120;-62
2021/08/14 08:45:54;;;;;;;20.20;4.07;;;;;;;;;;5020408;28;20141;-62
2021/08/14 08:48:21;;;;;;;18.17;3.38;;;;;;;;;;5018570;28;20493;-62
2021/08/14 08:50:48;;;;;;;22.98;3.70;;;;;;;;;;5018719;28;20580;-62
2021/08/14 08:53:14;;;;;;;14.52;3.38;;;;;;;;;;5022147;28;20148;-62
2021/08/14 08:55:41;;;;;;;13.45;3.10;;;;;;;;;;5022404;28;20129;-63
2021/08/14 08:58:08;;;;;;;17.70;3.60;;;;;;;;;;5022291;28;20074;-62
2021/08/14 09:00:34;;;;;;;15.82;3.70;;;;;;;;;;5020530;28;20085;-62
2021/08/14 09:03:05;;;;;;;16.42;3.38;;;;;;;;;;5021260;28;20391;-62
2021/08/14 09:05:32;;;;;;;14.93;3.85;;;;;;;;;;5018784;28;20049;-64
2021/08/14 09:08:09;;;;;;;16.95;3.90;;;;;;;;;;5023964;28;20099;-63
2021/08/14 09:10:35;;;;;;;14.43;3.80;;;;;;;;;;5026467;28;20129;-63
2021/08/14 09:13:09;;;;;;;13.10;3.22;;;;;;;;;;5025955;28;20052;-63
2021/08/14 09:15:36;;;;;;;18.75;3.65;;;;;;;;;;5023418;28;20069;-63
2021/08/14 09:18:03;;;;;;;11.95;3.45;;;;;;;;;;5022356;28;20445;-63
2021/08/14 09:20:30;;;;;;;16.17;3.85;;;;;;;;;;5017514;28;20115;-63
2021/08/14 09:23:01;;;;;;;20.20;3.97;;;;;;;;;;5020308;28;20091;-63
2021/08/14 09:25:37;;;;;;;18.67;3.30;;;;;;;;;;5018300;28;20127;-64
2021/08/14 09:28:05;;;;;;;24.92;4.03;;;;;;;;;;5030860;28;20135;-64
2021/08/14 09:30:49;;;;;;;17.80;3.70;;;;;;;;;;5022493;28;20136;-64
2021/08/14 09:33:26;;;;;;;20.80;4.03;;;;;;;;;;5020511;28;20056;-64
2021/08/14 09:36:03;;;;;;;25.15;4.50;;;;;;;;;;5022338;28;20111;-64
2021/08/14 09:38:49;;;;;;;15.13;3.45;;;;;;;;;;5021107;28;20136;-63
2021/08/14 09:41:16;;;;;;;14.95;3.55;;;;;;;;;;5026779;28;20084;-64
2021/08/14 09:43:43;;;;;;;12.60;3.47;;;;;;;;;;5021832;28;20073;-64
2021/08/14 09:46:10;;;;;;;10.73;3.10;;;;;;;;;;5024212;28;20077;-64
2021/08/14 09:48:37;;;;;;;21.75;3.47;;;;;;;;;;5027048;28;20494;-64
2021/08/14 09:51:04;;;;;;;17.27;3.72;;;;;;;;;;5019789;28;20135;-64
2021/08/14 09:53:30;;;;;;;13.75;3.50;;;;;;;;;;5020026;28;20045;-64
2021/08/14 09:56:03;;;;;;;10.77;3.28;;;;;;;;;;5021320;28;20136;-63
2021/08/14 09:58:30;;;;;;;12.68;3.42;;;;;;;;;;5022632;28;20136;-64
2021/08/14 10:00:58;;;;;;;8.80;2.78;;;;;;;;;;5022477;28;20466;-63
2021/08/14 10:03:25;;;;;;;16.98;2.95;;;;;;;;;;5016456;28;20436;-64
2021/08/14 10:05:54;;;;;;;14.23;2.85;;;;;;;;;;5019567;28;20046;-63
2021/08/14 10:08:21;;;;;;;13.43;3.95;;;;;;;;;;5020344;28;20557;-63
2021/08/14 10:10:48;;;;;;;16.60;3.20;;;;;;;;;;5018597;28;20061;-63
2021/08/14 10:13:15;;;;;;;14.85;3.97;;;;;;;;;;5019592;28;20502;-63
2021/08/14 10:15:41;;;;;;;15.73;3.33;;;;;;;;;;5019259;28;20050;-64
2021/08/14 10:18:08;;;;;;;14.10;3.17;;;;;;;;;;5014765;28;20505;-63
2021/08/14 10:20:35;;;;;;;13.50;3.00;;;;;;;;;;5022350;28;20087;-64
2021/08/14 10:23:07;;;;;;;17.95;4.03;;;;;;;;;;5014497;28;20133;-64
2021/08/14 10:25:35;;;;;;;13.52;3.33;;;;;;;;;;5020308;28;20076;-64
2021/08/14 10:28:06;;;;;;;20.77;3.97;;;;;;;;;;5024890;28;20136;-65
2021/08/14 10:30:36;;;;;;;19.35;3.60;;;;;;;;;;5017509;28;20129;-64
2021/08/14 10:33:03;;;;;;;20.67;4.00;;;;;;;;;;5021240;28;20160;-63
2021/08/14 10:35:30;;;;;;;16.25;4.15;;;;;;;;;;5022540;28;20049;-64
2021/08/14 10:37:57;;;;;;;19.38;4.20;;;;;;;;;;5026325;28;20129;-63
2021/08/14 10:40:23;;;;;;;17.77;3.80;;;;;;;;;;5024808;28;20547;-63
2021/08/14 10:42:52;;;;;;;22.95;4.05;;;;;;;;;;5021999;28;20395;-63
2021/08/14 10:45:21;;;;;;;18.67;3.92;;;;;;;;;;5008087;28;20061;-63
2021/08/14 10:47:49;;;;;;;19.10;3.92;;;;;;;;;;5021088;28;20089;-63
2021/08/14 10:50:32;;;;;;;17.85;3.67;;;;;;;;;;5024925;28;20065;-63
2021/08/14 10:53:11;;;;;;;18.05;4.18;;;;;;;;;;5018553;28;20049;-63
2021/08/14 10:55:41;;;;;;;19.90;4.57;;;;;;;;;;5023026;28;20050;-63
2021/08/14 10:58:17;;;;;;;15.45;3.00;;;;;;;;;;5024969;28;20080;-63
2021/08/14 11:00:43;;;;;;;21.77;3.58;;;;;;;;;;5025032;28;20136;-63
2021/08/14 11:03:12;;;;;;;18.27;4.05;;;;;;;;;;5022363;28;20037;-63
2021/08/14 11:05:39;;;;;;;14.73;3.80;;;;;;;;;;5020501;28;20095;-63
2021/08/14 11:08:06;;;;;;;;;;;;;;;;;;5027536;28;20088;-63
2021/08/14 11:10:34;;;;;;;19.88;4.28;;;;;;;;;;5028126;28;19956;-63
2021/08/14 11:13:01;;;;;;;13.43;3.50;;;;;;;;;;5023994;28;20045;-63
2021/08/14 11:15:38;;;;;;;24.10;3.80;;;;;;;;;;5024912;28;20077;-63
2021/08/14 11:18:05;;;;;;;20.52;3.85;;;;;;;;;;5025392;28;20056;-63
2021/08/14 11:20:32;;;;;;;17.15;3.95;;;;;;;;;;5021280;28;20140;-63
2021/08/14 11:22:59;;;;;;;;;;;;;;;;;;5023693;28;20149;-63
2021/08/14 11:25:27;;;;;;;14.75;3.47;;;;;;;;;;5021810;28;19971;-63
2021/08/14 11:27:54;;;;;;;17.70;4.05;;;;;;;;;;5017440;28;20125;-63
2021/08/14 11:30:24;;;;;;;17.33;3.78;;;;;;;;;;5022631;28;20173;-63
2021/08/14 11:32:50;;;;;;;14.27;3.70;;;;;;;;;;5021130;28;20100;-63
2021/08/14 11:35:18;;;;;;;17.25;3.28;;;;;;;;;;5020474;28;20197;-63
2021/08/14 11:37:55;;;;;;;15.23;2.95;;;;;;;;;;5027826;28;20548;-63
2021/08/14 11:40:24;;;;;;;13.57;3.55;;;;;;;;;;5020344;28;20054;-63
2021/08/14 11:42:54;;;;;;;8.82;3.13;;;;;;;;;;5022765;28;20154;-63
2021/08/14 11:45:21;;;;;;;12.27;3.33;;;;;;;;;;5022795;28;20057;-63
2021/08/14 11:47:54;;;;;;;17.35;3.75;;;;;;;;;;5018111;28;20093;-63
2021/08/14 11:50:21;;;;;;;15.95;3.35;;;;;;;;;;5023745;28;20129;-63
2021/08/14 11:52:47;;;;;;;14.70;3.60;;;;;;;;;;5021059;28;20132;-63
2021/08/14 11:55:15;;;;;;;18.17;4.25;;;;;;;;;;5017467;28;20434;-63
2021/08/14 11:57:45;;;;;;;19.90;3.80;;;;;;;;;;5019084;28;20046;-63
2021/08/14 12:00:18;;;;;;;16.02;3.67;;;;;;;;;;5024113;28;20049;-63
2021/08/14 12:02:45;;;;;;;28.83;3.85;;;;;;;;;;5019775;28;20045;-63
2021/08/14 12:05:12;;;;;;;16.00;3.78;;;;;;;;;;5022447;28;20141;-63
2021/08/14 12:07:44;;;;;;;19.98;3.65;;;;;;;;;;5021164;28;20490;-63
2021/08/14 12:10:11;;;;;;;15.55;3.50;;;;;;;;;;5024065;28;20448;-63
2021/08/14 12:12:37;;;;;;;20.88;4.65;;;;;;;;;;5022769;28;20055;-63
2021/08/14 12:15:12;;;;;;;15.45;3.72;;;;;;;;;;5020125;28;20623;-63
2021/08/14 12:17:42;;;;;;;21.02;3.97;;;;;;;;;;5017735;28;20053;-63
2021/08/14 12:20:09;;;;;;;22.50;4.38;;;;;;;;;;5022127;28;20425;-63
2021/08/14 12:22:37;;;;;;;22.50;4.30;;;;;;;;;;5020835;28;20046;-63
2021/08/14 12:25:23;;;;;;;13.20;3.60;;;;;;;;;;5018808;28;20500;-63
2021/08/14 12:27:49;;;;;;;18.45;3.63;;;;;;;;;;5022785;28;20053;-63
2021/08/14 12:30:20;;;;;;;17.48;3.42;;;;;;;;;;5024869;28;20132;-63
2021/08/14 12:32:48;;;;;;;14.18;3.80;;;;;;;;;;5021413;28;20045;-63
2021/08/14 12:35:19;;;;;;;18.65;3.60;;;;;;;;;;5020725;28;20046;-63
2021/08/14 12:37:46;;;;;;;15.77;4.00;;;;;;;;;;5024022;28;20049;-63
2021/08/14 12:40:15;;;;;;;20.80;5.43;;;;;;;;;;5021497;28;20521;-63
2021/08/14 12:42:42;;;;;;;19.85;4.45;;;;;;;;;;5019034;28;20122;-63
2021/08/14 12:45:13;;;;;;;18.57;5.13;;;;;;;;;;5021876;28;20519;-63
2021/08/14 12:47:40;;;;;;;14.20;3.83;;;;;;;;;;5023211;28;20141;-63
2021/08/14 12:50:06;;;;;;;13.75;3.75;;;;;;;;;;5022001;28;20124;-63
2021/08/14 12:52:33;;;;;;;27.45;5.10;;;;;;;;;;5036271;28;20103;-63
2021/08/14 12:54:59;;;;;;;18.73;3.55;;;;;;;;;;5026878;28;20053;-63
2021/08/14 12:57:26;;;;;;;15.30;4.13;;;;;;;;;;5015528;28;20041;-63
2021/08/14 12:59:53;;;;;;;18.83;4.63;;;;;;;;;;5020710;28;20143;-63
2021/08/14 13:02:19;;;;;;;23.90;4.00;;;;;;;;;;5019191;28;20128;-63
2021/08/14 13:04:46;;;;;;;19.35;3.75;;;;;;;;;;5020477;28;20512;-63
2021/08/14 13:07:13;;;;;;;22.63;4.90;;;;;;;;;;5019836;28;20052;-63
2021/08/14 13:09:39;;;;;;;24.42;4.90;;;;;;;;;;5016487;28;20045;-63
2021/08/14 13:12:06;;;;;;;21.35;4.97;;;;;;;;;;5024657;28;20125;-63
2021/08/14 13:14:32;;;;;;;17.35;3.65;;;;;;;;;;5025718;28;20146;-63
2021/08/14 13:16:59;;;;;;;18.95;4.30;;;;;;;;;;5018193;28;20056;-63
2021/08/14 13:19:26;;;;;;;19.05;4.28;;;;;;;;;;5014742;28;20509;-63
2021/08/14 13:21:53;;;;;;;18.65;4.25;;;;;;;;;;5020806;28;20136;-63
2021/08/14 13:24:20;;;;;;;17.77;3.55;;;;;;;;;;5019218;28;20133;-63
2021/08/14 13:26:49;;;;;;;19.13;4.25;;;;;;;;;;5021167;28;20136;-63
2021/08/14 13:29:16;;;;;;;17.77;4.15;;;;;;;;;;5023023;28;20495;-63
2021/08/14 13:31:44;;;;;;;16.80;3.38;;;;;;;;;;5018282;28;20056;-63
2021/08/14 13:34:12;;;;;;;15.97;3.47;;;;;;;;;;5018391;28;20602;-63
2021/08/14 13:36:39;;;;;;;17.13;3.17;;;;;;;;;;5018688;28;20481;-63
2021/08/14 13:39:05;;;;;;;15.98;3.53;;;;;;;;;;5024596;28;20076;-63
2021/08/14 13:41:32;;;;;;;18.57;4.30;;;;;;;;;;5025017;28;20056;-63
2021/08/14 13:43:59;;;;;;;16.55;4.07;;;;;;;;;;5023414;28;20372;-63
2021/08/14 13:46:25;;;;;;;16.73;4.10;;;;;;;;;;5017795;28;20056;-63
2021/08/14 13:48:52;;;;;;;27.35;3.42;;;;;;;;;;5022227;28;20045;-63
2021/08/14 13:51:19;;;;;;;26.63;4.43;;;;;;;;;;5025588;28;20132;-63
2021/08/14 13:53:45;;;;;;;18.20;4.47;;;;;;;;;;5017668;28;20081;-63
2021/08/14 13:56:12;;;;;;;22.95;3.90;;;;;;;;;;5022954;28;20049;-63
2021/08/14 13:58:39;;;;;;;24.10;3.90;;;;;;;;;;5020393;28;20591;-63
2021/08/14 14:01:06;;;;;;;17.92;4.03;;;;;;;;;;5018693;28;20133;-63
2021/08/14 14:03:33;;;;;;;;;;;;;;;;;;5015970;28;20045;-63
2021/08/14 14:05:59;;;;;;;20.08;4.65;;;;;;;;;;5020703;28;20044;-63
2021/08/14 14:08:29;;;;;;;22.42;4.05;;;;;;;;;;5021817;28;20592;-63
2021/08/14 14:10:56;;;;;;;27.58;4.40;;;;;;;;;;5024150;28;20185;-63
2021/08/14 14:13:23;;;;;;;20.20;4.03;;;;;;;;;;5024781;28;20081;-63
2021/08/14 14:15:50;;;;;;;20.40;4.78;;;;;;;;;;5027581;28;20049;-63
2021/08/14 14:18:16;;;;;;;25.58;4.85;;;;;;;;;;5017325;28;20049;-63
2021/08/14 14:20:44;;;;;;;16.83;4.03;;;;;;;;;;5025318;28;20147;-63
2021/08/14 14:23:12;;;;;;;17.35;3.85;;;;;;;;;;5023444;28;20088;-63
2021/08/14 14:25:38;;;;;;;27.20;4.30;;;;;;;;;;5025989;28;20085;-63
2021/08/14 14:28:05;;;;;;;19.77;3.90;;;;;;;;;;5019432;28;20060;-63
2021/08/14 14:30:31;;;;;;;18.90;3.65;;;;;;;;;;5023766;28;20462;-63
2021/08/14 14:32:58;;;;;;;19.70;4.22;;;;;;;;;;5023158;28;20129;-63